Time;durP1;ratioP1;P1;durP2;ratioP2;P2;SDS_P1;SDS_P2;PMS_P1;PMS_P2;Temp;Humidity;BMP_temperature;BMP_pressure;BME280_temperature;BME280_humidity;BME280_pressure;Samples;Min_cycle;Max_cycle;Signal;HPM_P1;HPM_P2
2023/08/13 00:01:37;;;;;;;3.95;3.60;;;;;;;;;;4989744;28;20222;-32
2023/08/13 00:04:05;;;;;;;3.00;2.80;;;;;;;;;;4974207;28;20209;-26
2023/08/13 00:06:32;;;;;;;4.28;3.78;;;;;;;;;;4989591;28;20207;-32
2023/08/13 00:08:59;;;;;;;5.17;3.10;;;;;;;;;;4976185;28;20237;-31
2023/08/13 00:11:26;;;;;;;5.75;3.95;;;;;;;;;;4987179;28;20211;-28
2023/08/13 00:13:55;;;;;;;5.07;4.65;;;;;;;;;;4977495;28;20207;-31
2023/08/13 00:16:22;;;;;;;3.53;3.25;;;;;;;;;;4983484;28;20233;-29
2023/08/13 00:18:49;;;;;;;4.25;3.85;;;;;;;;;;4977458;28;20220;-28
2023/08/13 00:21:16;;;;;;;4.50;3.80;;;;;;;;;;4985387;28;20215;-32
2023/08/13 00:23:44;;;;;;;5.22;4.57;;;;;;;;;;4982102;28;20207;-29
2023/08/13 00:26:11;;;;;;;5.55;3.50;;;;;;;;;;4984169;28;20204;-28
2023/08/13 00:28:38;;;;;;;4.03;3.72;;;;;;;;;;4985546;28;20232;-33
2023/08/13 00:31:06;;;;;;;3.47;3.10;;;;;;;;;;4981837;28;20208;-32
2023/08/13 00:33:33;;;;;;;5.43;3.00;;;;;;;;;;4979925;28;20205;-32
2023/08/13 00:36:00;;;;;;;3.97;3.67;;;;;;;;;;4973843;28;20200;-31
2023/08/13 00:38:28;;;;;;;4.33;4.03;;;;;;;;;;4972728;28;20208;-33
2023/08/13 00:40:55;;;;;;;3.92;3.58;;;;;;;;;;4972456;28;20751;-29
2023/08/13 00:43:22;;;;;;;4.28;3.95;;;;;;;;;;4980523;28;20275;-29
2023/08/13 00:45:49;;;;;;;7.00;4.63;;;;;;;;;;4977707;28;20208;-28
2023/08/13 00:48:18;;;;;;;4.57;4.10;;;;;;;;;;4985044;28;20215;-30
2023/08/13 00:50:45;;;;;;;3.50;3.30;;;;;;;;;;4980250;28;20226;-29
2023/08/13 00:53:13;;;;;;;5.47;3.78;;;;;;;;;;4974965;28;20211;-28
2023/08/13 00:55:40;;;;;;;3.78;3.40;;;;;;;;;;4979889;28;20211;-30
2023/08/13 00:58:07;;;;;;;3.58;3.28;;;;;;;;;;4985628;28;20292;-27
2023/08/13 01:00:34;;;;;;;3.73;3.43;;;;;;;;;;4982913;28;20230;-33
2023/08/13 01:03:02;;;;;;;4.03;3.73;;;;;;;;;;4982862;28;20204;-26
2023/08/13 01:05:34;;;;;;;4.80;4.30;;;;;;;;;;4972503;28;20203;-28
2023/08/13 01:08:06;;;;;;;15.57;4.20;;;;;;;;;;4980251;28;20204;-30
2023/08/13 01:10:35;;;;;;;5.93;5.00;;;;;;;;;;4988367;28;20236;-33
2023/08/13 01:13:05;;;;;;;4.13;3.83;;;;;;;;;;4977438;28;20212;-31
2023/08/13 01:15:33;;;;;;;5.03;4.00;;;;;;;;;;4985416;28;20208;-28
2023/08/13 01:18:01;;;;;;;4.03;3.72;;;;;;;;;;4977856;28;20283;-28
2023/08/13 01:20:32;;;;;;;6.00;4.63;;;;;;;;;;4972845;28;20232;-29
2023/08/13 01:23:00;;;;;;;7.67;4.20;;;;;;;;;;4977343;28;20212;-30
2023/08/13 01:25:27;;;;;;;5.65;4.10;;;;;;;;;;4979098;28;20208;-31
2023/08/13 01:27:58;;;;;;;6.80;4.20;;;;;;;;;;4984584;28;20211;-29
2023/08/13 01:30:27;;;;;;;9.57;3.95;;;;;;;;;;4976025;28;20223;-31
2023/08/13 01:32:56;;;;;;;11.48;4.22;;;;;;;;;;4980287;28;20291;-32
2023/08/13 01:35:24;;;;;;;4.30;4.00;;;;;;;;;;4974566;28;20203;-28
2023/08/13 01:37:51;;;;;;;5.20;4.30;;;;;;;;;;4981246;28;20219;-27
2023/08/13 01:40:20;;;;;;;4.00;3.60;;;;;;;;;;4978599;28;20216;-31
2023/08/13 01:42:46;;;;;;;4.50;4.10;;;;;;;;;;4979029;28;20216;-32
2023/08/13 01:45:13;;;;;;;4.25;3.85;;;;;;;;;;4978976;28;20231;-27
2023/08/13 01:47:40;;;;;;;4.45;4.07;;;;;;;;;;4978424;28;20295;-28
2023/08/13 01:50:08;;;;;;;3.30;3.00;;;;;;;;;;4972031;28;20236;-29
2023/08/13 01:52:35;;;;;;;3.33;3.13;;;;;;;;;;4976147;28;20204;-32
2023/08/13 01:55:02;;;;;;;3.42;3.13;;;;;;;;;;4978912;28;20206;-29
2023/08/13 01:57:31;;;;;;;4.43;4.07;;;;;;;;;;4978393;28;20212;-30
2023/08/13 01:59:58;;;;;;;4.70;4.30;;;;;;;;;;4974077;28;20231;-29
2023/08/13 02:02:25;;;;;;;3.30;3.10;;;;;;;;;;4985229;28;20200;-30
2023/08/13 02:04:52;;;;;;;6.07;4.80;;;;;;;;;;4979260;28;20207;-31
2023/08/13 02:07:19;;;;;;;5.72;5.07;;;;;;;;;;4983847;28;20216;-30
2023/08/13 02:09:46;;;;;;;7.13;5.43;;;;;;;;;;4982754;28;20224;-26
2023/08/13 02:12:14;;;;;;;6.80;4.77;;;;;;;;;;4973437;28;20206;-32
2023/08/13 02:14:42;;;;;;;4.90;3.97;;;;;;;;;;4974845;28;20211;-31
2023/08/13 02:17:12;;;;;;;5.25;4.63;;;;;;;;;;4978104;28;20287;-31
2023/08/13 02:19:40;;;;;;;4.40;4.00;;;;;;;;;;4971658;28;20220;-29
2023/08/13 02:22:07;;;;;;;4.67;4.03;;;;;;;;;;4969854;28;20208;-31
2023/08/13 02:24:34;;;;;;;4.27;3.40;;;;;;;;;;4978479;28;20201;-31
2023/08/13 02:27:01;;;;;;;3.88;3.55;;;;;;;;;;4984527;28;20220;-30
2023/08/13 02:29:28;;;;;;;4.67;4.23;;;;;;;;;;4978264;28;20302;-26
2023/08/13 02:31:57;;;;;;;4.30;4.00;;;;;;;;;;4979129;28;20421;-30
2023/08/13 02:34:24;;;;;;;5.23;4.30;;;;;;;;;;4971230;28;20211;-34
2023/08/13 02:36:51;;;;;;;7.95;5.63;;;;;;;;;;4976169;28;20212;-30
2023/08/13 02:39:19;;;;;;;5.43;4.43;;;;;;;;;;4977862;28;20236;-32
2023/08/13 02:41:46;;;;;;;4.23;3.83;;;;;;;;;;4979254;28;20208;-28
2023/08/13 02:44:13;;;;;;;4.30;3.90;;;;;;;;;;4979659;28;20207;-27
2023/08/13 02:46:40;;;;;;;4.63;4.13;;;;;;;;;;4981334;28;20212;-29
2023/08/13 02:49:08;;;;;;;3.43;3.23;;;;;;;;;;4985198;28;20229;-32
2023/08/13 02:51:36;;;;;;;5.00;4.47;;;;;;;;;;4970643;28;20231;-32
2023/08/13 02:54:03;;;;;;;4.60;4.20;;;;;;;;;;4971783;28;20200;-33
2023/08/13 02:56:30;;;;;;;5.53;4.60;;;;;;;;;;4971909;28;20204;-29
2023/08/13 02:58:57;;;;;;;6.50;5.77;;;;;;;;;;4975496;28;20221;-27
2023/08/13 03:01:24;;;;;;;7.33;5.60;;;;;;;;;;4973315;28;20200;-31
2023/08/13 03:03:52;;;;;;;6.10;5.50;;;;;;;;;;4988944;28;20211;-27
2023/08/13 03:06:21;;;;;;;4.75;4.35;;;;;;;;;;4971946;28;20213;-29
2023/08/13 03:08:48;;;;;;;7.00;5.43;;;;;;;;;;4976031;28;20224;-30
2023/08/13 03:11:15;;;;;;;10.63;6.57;;;;;;;;;;4978383;28;20228;-32
2023/08/13 03:13:42;;;;;;;9.37;6.20;;;;;;;;;;4975666;28;20204;-28
2023/08/13 03:16:09;;;;;;;10.57;7.07;;;;;;;;;;4982845;28;20210;-31
2023/08/13 03:18:36;;;;;;;9.37;6.50;;;;;;;;;;4989208;28;20283;-28
2023/08/13 03:21:04;;;;;;;7.33;6.23;;;;;;;;;;4976251;28;20214;-30
2023/08/13 03:23:32;;;;;;;8.73;6.07;;;;;;;;;;4985033;28;20215;-31
2023/08/13 03:26:00;;;;;;;7.93;6.90;;;;;;;;;;4989676;28;20212;-30
2023/08/13 03:28:27;;;;;;;9.73;7.30;;;;;;;;;;4980831;28;20204;-29
2023/08/13 03:30:59;;;;;;;7.10;5.90;;;;;;;;;;4984452;28;20223;-32
2023/08/13 03:33:26;;;;;;;6.87;5.47;;;;;;;;;;4976883;28;20207;-29
2023/08/13 03:35:53;;;;;;;6.00;5.40;;;;;;;;;;4993353;28;20204;-31
2023/08/13 03:38:20;;;;;;;4.97;4.47;;;;;;;;;;4977613;28;20208;-30
2023/08/13 03:40:49;;;;;;;4.13;3.73;;;;;;;;;;4979938;28;20195;-28
2023/08/13 03:43:16;;;;;;;4.70;4.30;;;;;;;;;;4979381;28;20208;-29
2023/08/13 03:45:43;;;;;;;5.80;4.10;;;;;;;;;;4979737;28;20233;-26
2023/08/13 03:48:10;;;;;;;7.60;5.37;;;;;;;;;;4976750;28;20200;-32
2023/08/13 03:50:41;;;;;;;6.37;5.50;;;;;;;;;;4974049;28;20236;-30
2023/08/13 03:53:08;;;;;;;11.30;6.50;;;;;;;;;;4976359;28;20208;-32
2023/08/13 03:55:35;;;;;;;6.80;6.00;;;;;;;;;;4977706;28;20243;-30
2023/08/13 03:58:04;;;;;;;8.60;6.53;;;;;;;;;;4978553;28;20212;-30
2023/08/13 04:00:31;;;;;;;5.77;5.20;;;;;;;;;;4974045;28;20216;-29
2023/08/13 04:02:59;;;;;;;10.30;8.07;;;;;;;;;;4988016;28;20196;-30
2023/08/13 04:05:26;;;;;;;7.33;6.27;;;;;;;;;;4978789;28;20212;-31
2023/08/13 04:07:53;;;;;;;7.27;6.40;;;;;;;;;;4973403;28;20209;-32
2023/08/13 04:10:20;;;;;;;6.70;6.03;;;;;;;;;;4984231;28;20256;-31
2023/08/13 04:12:47;;;;;;;6.23;4.80;;;;;;;;;;4975405;28;20208;-31
2023/08/13 04:15:16;;;;;;;8.43;5.87;;;;;;;;;;4972458;28;20215;-32
2023/08/13 04:17:43;;;;;;;7.13;5.53;;;;;;;;;;4981188;28;20205;-29
2023/08/13 04:20:11;;;;;;;6.03;5.20;;;;;;;;;;4973759;28;20212;-30
2023/08/13 04:22:38;;;;;;;6.37;5.50;;;;;;;;;;4974428;28;20204;-30
2023/08/13 04:25:07;;;;;;;4.30;3.90;;;;;;;;;;4973052;28;20226;-29
2023/08/13 04:27:34;;;;;;;5.50;4.87;;;;;;;;;;4988785;28;20247;-33
2023/08/13 04:30:01;;;;;;;6.23;5.53;;;;;;;;;;4990344;28;20237;-29
2023/08/13 04:32:31;;;;;;;7.77;4.93;;;;;;;;;;4976059;28;20267;-30
2023/08/13 04:34:59;;;;;;;6.87;5.07;;;;;;;;;;4993176;28;20203;-31
2023/08/13 04:37:26;;;;;;;4.53;3.53;;;;;;;;;;4986958;28;20218;-31
2023/08/13 04:39:53;;;;;;;4.03;3.63;;;;;;;;;;4987280;28;20220;-27
2023/08/13 04:42:20;;;;;;;4.53;3.90;;;;;;;;;;4975669;28;20200;-31
2023/08/13 04:44:47;;;;;;;4.70;3.80;;;;;;;;;;4984500;28;20217;-29
2023/08/13 04:47:14;;;;;;;6.70;4.97;;;;;;;;;;4980498;28;20211;-32
2023/08/13 04:49:43;;;;;;;4.57;3.83;;;;;;;;;;4984962;28;20226;-32
2023/08/13 04:52:10;;;;;;;4.53;4.13;;;;;;;;;;4983331;28;20220;-32
2023/08/13 04:54:37;;;;;;;7.60;6.27;;;;;;;;;;4981907;28;20215;-28
2023/08/13 04:57:04;;;;;;;6.83;5.33;;;;;;;;;;4986008;28;20203;-31
2023/08/13 04:59:31;;;;;;;5.83;4.80;;;;;;;;;;4984677;28;20238;-30
2023/08/13 05:01:58;;;;;;;5.13;4.30;;;;;;;;;;4984306;28;20192;-32
2023/08/13 05:04:25;;;;;;;4.20;3.77;;;;;;;;;;4974480;28;20219;-30
2023/08/13 05:06:54;;;;;;;4.43;4.03;;;;;;;;;;4987985;28;20214;-29
2023/08/13 05:09:21;;;;;;;4.50;4.10;;;;;;;;;;4986258;28;20243;-31
2023/08/13 05:11:48;;;;;;;4.40;3.80;;;;;;;;;;4989112;28;20290;-29
2023/08/13 05:14:15;;;;;;;4.50;4.10;;;;;;;;;;4983200;28;20203;-31
2023/08/13 05:16:42;;;;;;;4.80;4.40;;;;;;;;;;4984586;28;20204;-30
2023/08/13 05:19:09;;;;;;;4.77;4.07;;;;;;;;;;4987247;28;20231;-30
2023/08/13 05:21:36;;;;;;;6.63;4.97;;;;;;;;;;5072632;23;20217;-26
2023/08/13 05:24:05;;;;;;;5.17;4.40;;;;;;;;;;5021718;28;20210;-30
2023/08/13 05:26:33;;;;;;;4.47;4.07;;;;;;;;;;5036333;28;20198;-31
2023/08/13 05:29:00;;;;;;;7.17;5.10;;;;;;;;;;5023217;28;20247;-32
2023/08/13 05:31:27;;;;;;;8.23;5.57;;;;;;;;;;5040677;28;20236;-29
2023/08/13 05:33:57;;;;;;;6.83;5.73;;;;;;;;;;5035808;28;20265;-27
2023/08/13 05:36:24;;;;;;;6.13;5.53;;;;;;;;;;5024224;28;20210;-31
2023/08/13 05:38:51;;;;;;;12.97;6.13;;;;;;;;;;5032229;28;20234;-34
2023/08/13 05:41:20;;;;;;;6.30;5.70;;;;;;;;;;5038794;28;20204;-31
2023/08/13 05:43:47;;;;;;;5.47;4.73;;;;;;;;;;5022842;28;20203;-32
2023/08/13 05:46:14;;;;;;;5.70;5.20;;;;;;;;;;5041301;28;20292;-33
2023/08/13 05:48:42;;;;;;;6.68;4.72;;;;;;;;;;5036574;28;20313;-31
2023/08/13 05:51:09;;;;;;;6.80;5.40;;;;;;;;;;5027816;28;20222;-33
2023/08/13 05:53:36;;;;;;;4.83;4.10;;;;;;;;;;5023282;28;20206;-30
2023/08/13 05:56:03;;;;;;;8.50;5.67;;;;;;;;;;5039128;28;20216;-30
2023/08/13 05:58:32;;;;;;;6.40;4.77;;;;;;;;;;5028775;28;20202;-31
2023/08/13 06:00:59;;;;;;;5.40;4.45;;;;;;;;;;5030214;28;20290;-33
2023/08/13 06:03:27;;;;;;;7.20;4.73;;;;;;;;;;5051223;28;20277;-30
2023/08/13 06:05:55;;;;;;;5.53;4.07;;;;;;;;;;5050317;28;20223;-31
2023/08/13 06:08:23;;;;;;;4.73;4.00;;;;;;;;;;5029885;28;20246;-31
2023/08/13 06:10:50;;;;;;;4.90;4.50;;;;;;;;;;5036930;28;20318;-32
2023/08/13 06:13:17;;;;;;;4.50;3.60;;;;;;;;;;5020899;28;20293;-31
2023/08/13 06:15:45;;;;;;;3.27;2.97;;;;;;;;;;5024546;28;20209;-31
2023/08/13 06:18:13;;;;;;;4.67;4.27;;;;;;;;;;5037495;28;20201;-28
2023/08/13 06:20:40;;;;;;;3.70;3.50;;;;;;;;;;5028375;28;20313;-31
2023/08/13 06:23:07;;;;;;;6.50;4.40;;;;;;;;;;5028009;28;20223;-31
2023/08/13 06:25:34;;;;;;;4.63;3.60;;;;;;;;;;5042579;28;20198;-29
2023/08/13 06:28:01;;;;;;;5.73;3.87;;;;;;;;;;5030092;28;20203;-29
2023/08/13 06:30:28;;;;;;;3.43;3.13;;;;;;;;;;5024932;28;20226;-33
2023/08/13 06:32:57;;;;;;;4.40;4.00;;;;;;;;;;5036674;28;20295;-31
2023/08/13 06:35:24;;;;;;;5.17;4.67;;;;;;;;;;5046420;28;20339;-29
2023/08/13 06:37:51;;;;;;;4.30;3.90;;;;;;;;;;5018786;28;20213;-31
2023/08/13 06:40:18;;;;;;;5.40;4.90;;;;;;;;;;5024341;28;20234;-32
2023/08/13 06:42:45;;;;;;;5.90;4.83;;;;;;;;;;5024406;28;20206;-30
2023/08/13 06:45:13;;;;;;;5.27;4.63;;;;;;;;;;5030991;28;20214;-33
2023/08/13 06:47:40;;;;;;;4.77;4.10;;;;;;;;;;5041017;28;20198;-32
2023/08/13 06:50:09;;;;;;;4.00;3.70;;;;;;;;;;5032686;28;20233;-30
2023/08/13 06:52:36;;;;;;;4.03;3.63;;;;;;;;;;5029106;28;20223;-29
2023/08/13 06:55:03;;;;;;;4.77;3.70;;;;;;;;;;5043312;28;20198;-30
2023/08/13 06:57:30;;;;;;;5.77;3.37;;;;;;;;;;5037365;28;20206;-27
2023/08/13 06:59:58;;;;;;;3.80;3.50;;;;;;;;;;5023639;28;20227;-30
2023/08/13 07:02:25;;;;;;;3.40;3.10;;;;;;;;;;5045251;28;20193;-29
2023/08/13 07:04:52;;;;;;;3.00;2.70;;;;;;;;;;5056043;28;20205;-27
2023/08/13 07:07:20;;;;;;;3.53;3.27;;;;;;;;;;5039497;28;20205;-31
2023/08/13 07:09:47;;;;;;;3.37;3.07;;;;;;;;;;5044798;28;20232;-32
2023/08/13 07:12:15;;;;;;;2.97;2.77;;;;;;;;;;5041651;28;20222;-31
2023/08/13 07:14:42;;;;;;;4.53;4.07;;;;;;;;;;5026829;28;20212;-31
2023/08/13 07:17:09;;;;;;;3.80;3.50;;;;;;;;;;5044129;28;20198;-32
2023/08/13 07:19:36;;;;;;;3.40;3.00;;;;;;;;;;5047025;28;20226;-32
2023/08/13 07:22:04;;;;;;;4.80;3.70;;;;;;;;;;5025678;28;20207;-30
2023/08/13 07:24:32;;;;;;;4.10;3.80;;;;;;;;;;5035631;28;20198;-30
2023/08/13 07:26:59;;;;;;;5.22;3.53;;;;;;;;;;5034111;28;20213;-27
2023/08/13 07:29:26;;;;;;;3.97;3.63;;;;;;;;;;5024208;28;20222;-30
2023/08/13 07:31:54;;;;;;;3.92;3.63;;;;;;;;;;5042386;28;20217;-29
2023/08/13 07:34:21;;;;;;;5.87;3.50;;;;;;;;;;5052882;28;20209;-30
2023/08/13 07:36:48;;;;;;;3.20;2.80;;;;;;;;;;5047954;28;20207;-33
2023/08/13 07:39:16;;;;;;;2.60;2.40;;;;;;;;;;5032306;28;20328;-33
2023/08/13 07:41:46;;;;;;;3.80;3.50;;;;;;;;;;5033402;28;20205;-28
2023/08/13 07:44:13;;;;;;;3.40;2.97;;;;;;;;;;5024448;28;20213;-34
2023/08/13 07:46:41;;;;;;;4.30;4.00;;;;;;;;;;5046446;28;20205;-30
2023/08/13 07:49:08;;;;;;;3.20;3.00;;;;;;;;;;5035608;28;20260;-29
2023/08/13 07:51:35;;;;;;;3.03;2.67;;;;;;;;;;5028927;28;20222;-31
2023/08/13 07:54:02;;;;;;;2.43;2.23;;;;;;;;;;5025714;28;20212;-32
2023/08/13 07:56:29;;;;;;;2.90;2.33;;;;;;;;;;5026448;28;20236;-31
2023/08/13 07:58:58;;;;;;;2.43;2.33;;;;;;;;;;5021780;28;20219;-34
2023/08/13 08:01:28;;;;;;;2.70;2.50;;;;;;;;;;5027705;28;20204;-32
2023/08/13 08:04:02;;;;;;;3.63;3.00;;;;;;;;;;5029337;28;20256;-31
2023/08/13 08:06:29;;;;;;;2.80;2.60;;;;;;;;;;5017865;28;20309;-28
2023/08/13 08:08:56;;;;;;;2.70;2.50;;;;;;;;;;5031629;28;20232;-32
2023/08/13 08:11:23;;;;;;;3.43;3.10;;;;;;;;;;5039516;28;20314;-30
2023/08/13 08:13:50;;;;;;;3.23;2.93;;;;;;;;;;5022369;28;20203;-35
2023/08/13 08:16:19;;;;;;;3.50;3.20;;;;;;;;;;5027643;28;20202;-30
2023/08/13 08:18:46;;;;;;;3.37;3.10;;;;;;;;;;5036348;28;20219;-33
2023/08/13 08:21:13;;;;;;;3.67;3.20;;;;;;;;;;5025193;28;20217;-33
2023/08/13 08:23:42;;;;;;;3.70;3.40;;;;;;;;;;5034785;28;20210;-32
2023/08/13 08:26:09;;;;;;;3.70;3.40;;;;;;;;;;5038878;28;20202;-28
2023/08/13 08:28:36;;;;;;;2.80;2.60;;;;;;;;;;5028686;28;20215;-32
2023/08/13 08:31:03;;;;;;;2.50;2.40;;;;;;;;;;5036764;28;20264;-30
2023/08/13 08:33:32;;;;;;;3.50;3.20;;;;;;;;;;5043950;28;20212;-28
2023/08/13 08:35:59;;;;;;;3.53;2.58;;;;;;;;;;5028831;28;20211;-31
2023/08/13 08:38:26;;;;;;;3.55;2.67;;;;;;;;;;5036919;28;20249;-31
2023/08/13 08:40:53;;;;;;;2.65;2.45;;;;;;;;;;5025616;28;20293;-30
2023/08/13 08:43:20;;;;;;;2.67;2.47;;;;;;;;;;5017661;28;20205;-32
2023/08/13 08:45:48;;;;;;;3.88;3.00;;;;;;;;;;5031643;28;20289;-31
2023/08/13 08:48:17;;;;;;;3.15;2.92;;;;;;;;;;5038973;28;20256;-32
2023/08/13 08:50:45;;;;;;;2.58;2.38;;;;;;;;;;5027878;28;20203;-30
2023/08/13 08:53:12;;;;;;;2.75;2.55;;;;;;;;;;5038538;28;20245;-33
2023/08/13 08:55:40;;;;;;;3.78;2.50;;;;;;;;;;5046061;28;20198;-33
2023/08/13 08:58:07;;;;;;;2.50;2.25;;;;;;;;;;5024882;28;20290;-32
2023/08/13 09:00:34;;;;;;;3.13;2.35;;;;;;;;;;5030546;28;20226;-29
2023/08/13 09:03:02;;;;;;;3.05;2.83;;;;;;;;;;5050809;28;20203;-31
2023/08/13 09:05:30;;;;;;;4.47;3.28;;;;;;;;;;5051290;28;20217;-31
2023/08/13 09:07:58;;;;;;;3.55;3.10;;;;;;;;;;5030248;28;20209;-27
2023/08/13 09:10:25;;;;;;;3.22;3.03;;;;;;;;;;5034265;28;20226;-30
2023/08/13 09:12:53;;;;;;;3.80;2.83;;;;;;;;;;5030387;28;20224;-31
2023/08/13 09:15:20;;;;;;;3.35;3.05;;;;;;;;;;5017085;28;20203;-34
2023/08/13 09:17:47;;;;;;;3.53;3.22;;;;;;;;;;5039142;28;20285;-29
2023/08/13 09:20:17;;;;;;;3.33;3.05;;;;;;;;;;5050044;28;20233;-28
2023/08/13 09:22:45;;;;;;;3.72;3.35;;;;;;;;;;5023656;28;20215;-30
2023/08/13 09:25:14;;;;;;;3.00;2.78;;;;;;;;;;5036684;28;20201;-30
2023/08/13 09:27:41;;;;;;;3.90;3.50;;;;;;;;;;5023379;28;20205;-33
2023/08/13 09:30:12;;;;;;;4.68;3.78;;;;;;;;;;5017420;28;20239;-31
2023/08/13 09:32:39;;;;;;;4.15;3.47;;;;;;;;;;5044754;28;20267;-33
2023/08/13 09:35:06;;;;;;;3.83;3.42;;;;;;;;;;5051250;28;20211;-33
2023/08/13 09:37:33;;;;;;;4.13;3.72;;;;;;;;;;5025547;28;20210;-33
2023/08/13 09:40:01;;;;;;;4.07;3.05;;;;;;;;;;5030411;28;20308;-33
2023/08/13 09:42:32;;;;;;;3.53;3.25;;;;;;;;;;5025600;28;20205;-29
2023/08/13 09:45:00;;;;;;;4.38;2.72;;;;;;;;;;5020482;28;20208;-35
2023/08/13 09:47:27;;;;;;;3.80;2.85;;;;;;;;;;5032238;28;20199;-29
2023/08/13 09:49:57;;;;;;;4.32;3.25;;;;;;;;;;5021754;28;20231;-29
2023/08/13 09:52:25;;;;;;;3.90;2.78;;;;;;;;;;5019678;28;20621;-32
2023/08/13 09:54:54;;;;;;;5.18;2.97;;;;;;;;;;5020210;28;20209;-32
2023/08/13 09:57:23;;;;;;;9.52;3.80;;;;;;;;;;5019972;28;20202;-34
2023/08/13 09:59:51;;;;;;;5.43;2.83;;;;;;;;;;5019004;28;20233;-33
2023/08/13 10:02:21;;;;;;;4.60;3.17;;;;;;;;;;5026361;28;20199;-32
2023/08/13 10:04:48;;;;;;;3.33;3.13;;;;;;;;;;5026560;28;20203;-29
2023/08/13 10:07:15;;;;;;;3.15;2.72;;;;;;;;;;5029507;28;20202;-33
2023/08/13 10:09:43;;;;;;;2.65;2.45;;;;;;;;;;5019736;28;20230;-34
2023/08/13 10:12:10;;;;;;;3.30;2.80;;;;;;;;;;5031236;28;20220;-29
2023/08/13 10:14:38;;;;;;;3.30;3.00;;;;;;;;;;5025054;28;20212;-32
2023/08/13 10:17:07;;;;;;;4.18;2.70;;;;;;;;;;5042791;28;20226;-30
2023/08/13 10:19:36;;;;;;;3.47;2.85;;;;;;;;;;5030591;28;20319;-30
2023/08/13 10:22:03;;;;;;;3.63;3.00;;;;;;;;;;5018620;28;20214;-29
2023/08/13 10:24:31;;;;;;;3.50;2.92;;;;;;;;;;5033810;28;20202;-33
2023/08/13 10:27:00;;;;;;;4.35;3.30;;;;;;;;;;5033564;28;20271;-30
2023/08/13 10:29:36;;;;;;;3.13;2.70;;;;;;;;;;5023134;28;20259;-31
2023/08/13 10:32:12;;;;;;;4.05;3.03;;;;;;;;;;5033705;28;20224;-35
2023/08/13 10:34:41;;;;;;;3.40;3.10;;;;;;;;;;5034300;28;20215;-34
2023/08/13 10:37:15;;;;;;;3.53;2.97;;;;;;;;;;5029797;28;20299;-33
2023/08/13 10:39:43;;;;;;;3.92;3.00;;;;;;;;;;5043733;28;20219;-33
2023/08/13 10:42:29;;;;;;;3.72;3.10;;;;;;;;;;5029191;28;20197;-29
2023/08/13 10:45:03;;;;;;;2.72;2.58;;;;;;;;;;5023136;28;20210;-30
2023/08/13 10:47:39;;;;;;;2.67;2.50;;;;;;;;;;5030593;28;20206;-33
2023/08/13 10:50:08;;;;;;;2.92;2.72;;;;;;;;;;5034160;28;20221;-32
2023/08/13 10:52:35;;;;;;;3.15;2.53;;;;;;;;;;5033591;28;20300;-32
2023/08/13 10:55:02;;;;;;;2.92;2.30;;;;;;;;;;5032360;28;20204;-33
2023/08/13 10:57:33;;;;;;;3.28;2.95;;;;;;;;;;5017024;28;20265;-29
2023/08/13 11:00:11;;;;;;;2.53;2.00;;;;;;;;;;5025686;28;20237;-30
2023/08/13 11:02:39;;;;;;;3.67;2.47;;;;;;;;;;5020497;28;20243;-31
2023/08/13 11:05:08;;;;;;;4.25;2.80;;;;;;;;;;4999043;28;20267;-31
2023/08/13 11:07:35;;;;;;;3.13;2.50;;;;;;;;;;5035766;28;20208;-33
2023/08/13 11:10:04;;;;;;;4.70;2.70;;;;;;;;;;5039846;28;20285;-31
2023/08/13 11:12:32;;;;;;;2.83;2.50;;;;;;;;;;5029062;28;20316;-29
2023/08/13 11:15:00;;;;;;;4.50;2.20;;;;;;;;;;5026240;28;20198;-30
2023/08/13 11:17:27;;;;;;;2.67;2.47;;;;;;;;;;5028121;28;20210;-28
2023/08/13 11:19:57;;;;;;;5.03;3.10;;;;;;;;;;5032078;28;20309;-32
2023/08/13 11:22:26;;;;;;;3.17;2.70;;;;;;;;;;5027214;28;20213;-28
2023/08/13 11:24:53;;;;;;;3.15;2.40;;;;;;;;;;5034475;28;20209;-32
2023/08/13 11:27:20;;;;;;;4.20;2.65;;;;;;;;;;5029106;28;20212;-31
2023/08/13 11:29:47;;;;;;;3.90;3.00;;;;;;;;;;5023235;28;20356;-34
2023/08/13 11:32:14;;;;;;;3.88;2.70;;;;;;;;;;5030923;28;20256;-28
2023/08/13 11:34:42;;;;;;;4.50;2.85;;;;;;;;;;5034123;28;20212;-30
2023/08/13 11:37:09;;;;;;;3.08;2.78;;;;;;;;;;5032825;28;20268;-31
2023/08/13 11:39:39;;;;;;;3.58;3.20;;;;;;;;;;5032089;28;20220;-32
2023/08/13 11:42:09;;;;;;;4.22;3.03;;;;;;;;;;5030907;28;20205;-31
2023/08/13 11:44:37;;;;;;;4.55;2.50;;;;;;;;;;5027054;28;20205;-30
2023/08/13 11:47:04;;;;;;;3.10;2.80;;;;;;;;;;5037117;28;20205;-29
2023/08/13 11:49:42;;;;;;;4.78;2.85;;;;;;;;;;5035310;28;20233;-28
2023/08/13 11:52:13;;;;;;;3.30;3.00;;;;;;;;;;5027002;28;20299;-30
2023/08/13 11:54:42;;;;;;;3.00;2.60;;;;;;;;;;5033517;28;20212;-30
2023/08/13 11:57:09;;;;;;;3.58;2.80;;;;;;;;;;5036064;28;20213;-33
2023/08/13 11:59:37;;;;;;;3.22;2.90;;;;;;;;;;5027875;28;20234;-33
2023/08/13 12:02:05;;;;;;;3.95;2.90;;;;;;;;;;5026570;28;20252;-30
2023/08/13 12:04:33;;;;;;;2.72;2.53;;;;;;;;;;5029712;28;20261;-29
2023/08/13 12:07:02;;;;;;;4.38;3.20;;;;;;;;;;5022210;28;20274;-33
2023/08/13 12:09:29;;;;;;;3.05;2.85;;;;;;;;;;5023151;28;20222;-30
2023/08/13 12:11:58;;;;;;;3.08;2.88;;;;;;;;;;5028808;28;20202;-34
2023/08/13 12:14:25;;;;;;;3.55;2.92;;;;;;;;;;5015880;28;20687;-32
2023/08/13 12:16:52;;;;;;;3.80;2.92;;;;;;;;;;5030440;28;20206;-33
2023/08/13 12:19:19;;;;;;;3.53;2.50;;;;;;;;;;5028514;28;20229;-32
2023/08/13 12:21:46;;;;;;;4.97;2.70;;;;;;;;;;5020957;28;20224;-31
2023/08/13 12:24:13;;;;;;;4.40;2.70;;;;;;;;;;5026851;28;20194;-33
2023/08/13 12:26:40;;;;;;;5.85;2.80;;;;;;;;;;5044285;28;20213;-32
2023/08/13 12:29:08;;;;;;;2.92;2.70;;;;;;;;;;5024870;28;20224;-29
2023/08/13 12:31:36;;;;;;;4.13;3.22;;;;;;;;;;5029755;28;20201;-33
2023/08/13 12:34:03;;;;;;;3.40;3.10;;;;;;;;;;5029260;28;20217;-34
2023/08/13 12:36:30;;;;;;;5.57;3.40;;;;;;;;;;5025313;28;20207;-31
2023/08/13 12:38:57;;;;;;;3.58;2.97;;;;;;;;;;5026262;28;20233;-31
2023/08/13 12:41:24;;;;;;;2.88;2.60;;;;;;;;;;5041669;28;20215;-29
2023/08/13 12:43:52;;;;;;;3.00;2.80;;;;;;;;;;5028997;28;20244;-32
2023/08/13 12:46:21;;;;;;;4.18;3.13;;;;;;;;;;5033934;28;20232;-30
2023/08/13 12:48:48;;;;;;;3.33;2.75;;;;;;;;;;5033279;28;20236;-28
2023/08/13 12:51:15;;;;;;;3.88;2.90;;;;;;;;;;5027514;28;20209;-33
2023/08/13 12:53:42;;;;;;;3.17;2.70;;;;;;;;;;5032704;28;20228;-32
2023/08/13 12:56:09;;;;;;;2.88;2.45;;;;;;;;;;5026641;28;20302;-33
2023/08/13 12:58:36;;;;;;;3.08;2.80;;;;;;;;;;5016735;28;20212;-32
2023/08/13 13:01:04;;;;;;;3.15;2.33;;;;;;;;;;5017686;28;20215;-32
2023/08/13 13:03:32;;;;;;;2.92;2.50;;;;;;;;;;5027303;28;20202;-28
2023/08/13 13:05:59;;;;;;;3.00;2.55;;;;;;;;;;5027819;28;20212;-34
2023/08/13 13:08:26;;;;;;;3.42;2.60;;;;;;;;;;5024447;28;20208;-34
2023/08/13 13:10:54;;;;;;;3.13;2.78;;;;;;;;;;5029189;28;20212;-30
2023/08/13 13:13:21;;;;;;;3.55;2.42;;;;;;;;;;5021735;28;20304;-30
2023/08/13 13:15:48;;;;;;;4.07;2.60;;;;;;;;;;5038343;28;20247;-34
2023/08/13 13:18:15;;;;;;;2.70;2.42;;;;;;;;;;5031461;28;20284;-33
2023/08/13 13:20:44;;;;;;;2.58;2.38;;;;;;;;;;5018909;28;20416;-31
2023/08/13 13:23:11;;;;;;;4.95;2.50;;;;;;;;;;5021388;28;20207;-32
2023/08/13 13:25:39;;;;;;;5.15;2.75;;;;;;;;;;5030193;28;20212;-32
2023/08/13 13:28:06;;;;;;;3.20;2.70;;;;;;;;;;5026463;28;20215;-30
2023/08/13 13:30:33;;;;;;;2.90;2.60;;;;;;;;;;5030955;28;20224;-33
2023/08/13 13:41:58;;;;;;;2.33;2.13;;;;;;;;;;4947647;29;20348;-31
2023/08/13 14:33:16;;;;;;;2.72;2.50;;;;;;;;;;4834144;28;20235;-33
2023/08/13 14:35:50;;;;;;;2.45;2.25;;;;;;;;;;4990985;28;20217;-32
2023/08/13 14:38:55;;;;;;;3.38;2.53;;;;;;;;;;4998400;28;20218;-32
2023/08/13 14:41:35;;;;;;;4.55;2.80;;;;;;;;;;5013163;28;20224;-31
2023/08/13 14:47:15;;;;;;;2.83;2.63;;;;;;;;;;5007732;28;20207;-33
2023/08/13 14:49:56;;;;;;;2.67;2.47;;;;;;;;;;4993697;28;20295;-33
2023/08/13 14:52:39;;;;;;;4.78;2.50;;;;;;;;;;5012359;28;20221;-34
2023/08/13 14:55:33;;;;;;;4.28;2.58;;;;;;;;;;5012937;28;20226;-31
2023/08/13 14:58:03;;;;;;;3.13;2.50;;;;;;;;;;5005960;28;20204;-30
2023/08/13 15:00:44;;;;;;;3.08;2.20;;;;;;;;;;4999121;28;20231;-32
2023/08/13 15:03:14;;;;;;;2.33;2.22;;;;;;;;;;5003708;28;20192;-30
2023/08/13 15:06:01;;;;;;;4.60;2.70;;;;;;;;;;4993187;28;20298;-29
2023/08/13 15:08:38;;;;;;;2.83;2.30;;;;;;;;;;4999059;28;20207;-31
2023/08/13 15:11:16;;;;;;;2.70;2.50;;;;;;;;;;5004650;28;20226;-30
2023/08/13 15:14:02;;;;;;;3.00;2.38;;;;;;;;;;5004425;28;20231;-31
2023/08/13 15:16:41;;;;;;;2.60;2.40;;;;;;;;;;4998865;28;20249;-31
2023/08/13 15:19:41;;;;;;;2.83;2.63;;;;;;;;;;5031599;22;20226;-33
2023/08/13 15:25:20;;;;;;;4.93;2.58;;;;;;;;;;5151448;27;20532;-38
2023/08/13 15:27:56;;;;;;;4.63;2.60;;;;;;;;;;5129173;27;20210;-41
2023/08/13 15:30:26;;;;;;;4.20;2.60;;;;;;;;;;5114290;27;20239;-36
2023/08/13 15:33:00;;;;;;;3.92;2.53;;;;;;;;;;5111554;28;20246;-38
2023/08/13 15:35:33;;;;;;;3.83;2.40;;;;;;;;;;5111903;28;20264;-40
2023/08/13 15:38:06;;;;;;;4.47;2.50;;;;;;;;;;5110346;28;20206;-42
2023/08/13 15:40:49;;;;;;;4.50;2.65;;;;;;;;;;5110345;28;20689;-40
2023/08/13 15:43:25;;;;;;;3.25;2.33;;;;;;;;;;5108879;28;20226;-37
2023/08/13 15:46:02;;;;;;;4.45;2.33;;;;;;;;;;5097214;28;20200;-40
2023/08/13 15:48:37;;;;;;;4.22;2.38;;;;;;;;;;5110644;28;20203;-41
2023/08/13 15:51:06;;;;;;;2.50;2.20;;;;;;;;;;5110341;28;20218;-33
2023/08/13 15:53:41;;;;;;;2.50;2.30;;;;;;;;;;5110835;28;20203;-45
2023/08/13 15:56:25;;;;;;;3.63;2.50;;;;;;;;;;5109133;28;20248;-43